createdAt,value
2023-03-11T00:00:39.411Z,8.08
2023-03-11T00:03:39.399Z,8.22
2023-03-11T00:06:39.458Z,8.29
2023-03-11T00:09:39.371Z,8.34
2023-03-11T00:12:39.392Z,8.18
2023-03-11T00:14:39.405Z,8.17
2023-03-11T00:17:39.422Z,8.46
2023-03-11T00:19:39.436Z,8.46
2023-03-11T00:22:39.450Z,8.42
2023-03-11T00:25:39.420Z,8.41
2023-03-11T00:28:39.377Z,8.33
2023-03-11T00:30:39.430Z,8.35
2023-03-11T00:33:39.395Z,8.3
2023-03-11T00:35:39.440Z,8.32
2023-03-11T00:38:39.408Z,8.43
2023-03-11T00:41:39.374Z,8.39
2023-03-11T00:43:39.380Z,8.46
2023-03-11T00:45:39.387Z,8.5
2023-03-11T00:47:39.400Z,8.43
2023-03-11T00:50:39.369Z,8.38
2023-03-11T00:52:39.397Z,8.39
2023-03-11T00:55:39.394Z,8.56
2023-03-11T00:57:39.425Z,8.7
2023-03-11T01:00:39.430Z,8.71
2023-03-11T01:03:39.393Z,8.43
2023-03-11T01:05:39.398Z,8.24
2023-03-11T01:07:39.411Z,8.27
2023-03-11T01:10:39.419Z,8.25
2023-03-11T01:12:39.371Z,8.2
2023-03-11T01:15:39.503Z,8.31
2023-03-11T01:17:39.406Z,8.35
2023-03-11T01:22:39.483Z,8.35
2023-03-11T01:25:39.406Z,8.18
2023-03-11T01:27:39.480Z,8.21
2023-03-11T01:30:39.380Z,8.21
2023-03-11T01:33:39.397Z,8.33
2023-03-11T01:36:39.405Z,8.42
2023-03-11T01:39:39.396Z,8.3
2023-03-11T01:41:39.405Z,8.33
2023-03-11T01:44:39.362Z,8.32
2023-03-11T01:47:39.420Z,8.14
2023-03-11T01:50:39.382Z,8.13
2023-03-11T01:53:39.370Z,8.05
2023-03-11T01:55:39.429Z,8.13
2023-03-11T01:58:39.395Z,8.17
2023-03-11T02:00:39.434Z,8.1
2023-03-11T02:03:39.351Z,8.09
2023-03-11T02:06:39.382Z,8.14
2023-03-11T02:09:39.355Z,8.03
2023-03-11T02:11:39.435Z,8.03
2023-03-11T02:14:39.383Z,8.05
2023-03-11T02:16:39.400Z,8.14
2023-03-11T02:18:39.376Z,8.17
2023-03-11T02:20:39.378Z,8.16
2023-03-11T02:23:39.355Z,8.08
2023-03-11T02:26:39.395Z,7.97
2023-03-11T02:28:39.393Z,7.92
2023-03-11T02:31:41.148Z,7.98
2023-03-11T02:33:39.373Z,7.96
2023-03-11T02:36:39.410Z,7.77
2023-03-11T02:38:39.373Z,7.7
2023-03-11T02:40:39.423Z,7.63
2023-03-11T02:43:39.382Z,7.67
2023-03-11T02:46:39.414Z,7.81
2023-03-11T02:49:39.348Z,7.91
2023-03-11T02:51:39.354Z,7.99
2023-03-11T02:54:39.370Z,8.09
2023-03-11T02:57:39.361Z,8.09
2023-03-11T02:59:39.348Z,8
2023-03-11T03:01:39.398Z,8.04
2023-03-11T03:04:39.380Z,7.92
2023-03-11T03:06:39.356Z,7.89
2023-03-11T03:09:39.363Z,7.72
2023-03-11T03:11:39.473Z,7.62
2023-03-11T03:14:39.403Z,7.54
2023-03-11T03:17:39.381Z,7.41
2023-03-11T03:20:39.416Z,7.31
2023-03-11T03:22:39.391Z,7.33
2023-03-11T03:25:39.397Z,7.4
2023-03-11T03:28:39.384Z,7.42
2023-03-11T03:30:39.376Z,7.44
2023-03-11T03:33:39.404Z,7.39
2023-03-11T03:35:39.411Z,7.39
2023-03-11T03:38:39.532Z,7.52
2023-03-11T03:41:39.468Z,7.51
2023-03-11T03:44:39.372Z,7.43
2023-03-11T03:46:39.386Z,7.42
2023-03-11T03:48:39.414Z,7.37
2023-03-11T03:51:39.378Z,7.36
2023-03-11T03:53:39.429Z,7.36
2023-03-11T03:56:39.401Z,7.38
2023-03-11T03:59:39.380Z,7.36
2023-03-11T04:02:39.427Z,7.35
2023-03-11T04:05:39.347Z,7.37
2023-03-11T04:07:39.398Z,7.28
2023-03-11T04:09:39.377Z,7.27
2023-03-11T04:12:39.396Z,7.35
2023-03-11T04:15:39.400Z,7.21
2023-03-11T04:18:39.369Z,7.05
2023-03-11T04:20:39.390Z,6.98
2023-03-11T04:23:39.399Z,6.92
2023-03-11T04:26:39.396Z,6.86
2023-03-11T04:28:39.389Z,6.9
2023-03-11T04:32:39.389Z,6.84
2023-03-11T04:35:39.378Z,6.64
2023-03-11T04:37:39.362Z,6.58
2023-03-11T04:40:39.360Z,6.67
2023-03-11T04:43:39.345Z,6.66
2023-03-11T04:46:40.261Z,6.62
2023-03-11T04:49:39.337Z,6.59
2023-03-11T04:51:39.374Z,6.53
2023-03-11T04:54:39.389Z,6.48
2023-03-11T04:57:39.363Z,6.6
2023-03-11T04:59:39.394Z,6.62
2023-03-11T05:01:39.406Z,6.61
2023-03-11T05:03:39.405Z,6.53
2023-03-11T05:06:39.407Z,6.49
2023-03-11T05:08:39.408Z,6.52
2023-03-11T05:11:39.376Z,6.54
2023-03-11T05:14:39.358Z,6.5
2023-03-11T05:16:39.370Z,6.5
2023-03-11T05:19:39.345Z,6.45
2023-03-11T05:21:39.340Z,6.37
2023-03-11T05:23:39.366Z,6.29
2023-03-11T05:25:39.426Z,6.31
2023-03-11T05:28:39.371Z,6.43
2023-03-11T05:31:39.375Z,6.41
2023-03-11T05:34:39.348Z,6.32
2023-03-11T05:36:39.386Z,6.33
2023-03-11T05:39:39.380Z,6.41
2023-03-11T05:42:39.382Z,6.43
2023-03-11T05:44:39.373Z,6.33
2023-03-11T05:46:46.307Z,6.35
2023-03-11T05:49:39.354Z,6.39
2023-03-11T05:51:39.392Z,6.38
2023-03-11T05:54:39.366Z,6.31
2023-03-11T05:57:39.350Z,6.45
2023-03-11T05:59:39.422Z,6.44
2023-03-11T06:02:39.361Z,6.45
2023-03-11T06:04:39.533Z,6.47
2023-03-11T06:07:40.359Z,6.47
2023-03-11T06:09:39.400Z,6.45
2023-03-11T06:12:39.317Z,6.41
2023-03-11T06:14:39.382Z,6.37
2023-03-11T06:17:39.349Z,6.48
2023-03-11T06:19:39.383Z,6.5
2023-03-11T06:22:40.324Z,6.41
2023-03-11T06:25:39.336Z,6.44
2023-03-11T06:28:39.332Z,6.45
2023-03-11T06:30:39.387Z,6.46
2023-03-11T06:33:39.345Z,6.33
2023-03-11T06:36:39.336Z,6.39
2023-03-11T06:38:39.348Z,6.33
2023-03-11T06:41:39.311Z,6.32
2023-03-11T06:43:39.342Z,6.34
2023-03-11T06:46:33.777Z,6.25
2023-03-11T06:48:39.329Z,6.03
2023-03-11T06:50:39.364Z,5.81
2023-03-11T06:53:39.359Z,5.9
2023-03-11T06:56:39.334Z,5.9
2023-03-11T06:59:39.339Z,5.98
2023-03-11T07:01:39.359Z,6.02
2023-03-11T07:04:39.322Z,6.02
2023-03-11T07:06:39.365Z,6.1
2023-03-11T07:09:39.363Z,6.23
2023-03-11T07:12:39.383Z,6.29
2023-03-11T07:15:39.342Z,6.19
2023-03-11T07:17:39.388Z,6.24
2023-03-11T07:20:39.366Z,6.25
2023-03-11T07:22:39.357Z,6.19
2023-03-11T07:25:39.358Z,6.22
2023-03-11T07:27:39.414Z,6.29
2023-03-11T07:30:39.424Z,6.4
2023-03-11T07:33:39.386Z,6.43
2023-03-11T07:35:46.622Z,6.46
2023-03-11T07:38:40.239Z,6.42
2023-03-11T07:40:39.356Z,6.4
2023-03-11T07:42:39.350Z,6.37
2023-03-11T07:45:39.357Z,6.34
2023-03-11T07:48:39.358Z,6.24
2023-03-11T07:51:39.348Z,6.24
2023-03-11T07:53:39.344Z,6.26
2023-03-11T07:55:39.332Z,6.31
2023-03-11T07:57:39.362Z,6.31
2023-03-11T07:59:39.381Z,6.34
2023-03-11T08:01:39.382Z,6.35
2023-03-11T08:04:39.363Z,6.32
2023-03-11T08:07:39.351Z,6.32
2023-03-11T08:09:39.372Z,6.33
2023-03-11T08:12:39.337Z,6.34
2023-03-11T08:15:39.390Z,6.47
2023-03-11T08:17:39.344Z,6.48
2023-03-11T08:20:39.325Z,6.47
2023-03-11T08:23:39.305Z,6.52
2023-03-11T08:25:39.337Z,6.5
2023-03-11T08:28:39.327Z,6.58
2023-03-11T08:31:39.408Z,6.65
2023-03-11T08:33:39.364Z,6.8
2023-03-11T08:36:39.331Z,6.84
2023-03-11T08:38:39.369Z,6.86
2023-03-11T08:40:39.307Z,6.79
2023-03-11T08:43:39.323Z,6.82
2023-03-11T08:45:39.407Z,6.81
2023-03-11T08:48:39.339Z,6.76
2023-03-11T08:51:39.342Z,6.8
2023-03-11T08:53:39.340Z,6.96
2023-03-11T08:56:39.326Z,7.08
2023-03-11T08:58:39.316Z,7.06
2023-03-11T09:00:39.341Z,7.01
2023-03-11T09:02:39.416Z,7.07
2023-03-11T09:05:39.422Z,7.16
2023-03-11T09:07:39.465Z,7.23
2023-03-11T09:10:39.369Z,7.3
2023-03-11T09:12:40.417Z,7.26
2023-03-11T09:15:39.382Z,7.35
2023-03-11T09:18:39.347Z,7.5
2023-03-11T09:21:39.333Z,7.65
2023-03-11T09:23:40.084Z,7.68
2023-03-11T09:26:39.363Z,7.69
2023-03-11T09:29:39.344Z,7.77
2023-03-11T09:31:39.395Z,7.79
2023-03-11T09:34:39.371Z,7.79
2023-03-11T09:36:39.365Z,7.91
2023-03-11T09:39:39.327Z,7.88
2023-03-11T09:41:51.500Z,7.98
2023-03-11T09:43:39.346Z,8.1
2023-03-11T09:46:39.385Z,8.21
2023-03-11T09:49:39.319Z,8.31
2023-03-11T09:51:39.314Z,8.37
2023-03-11T09:53:39.351Z,8.38
2023-03-11T09:55:39.345Z,8.39
2023-03-11T09:58:39.340Z,8.45
2023-03-11T10:00:39.358Z,8.5
2023-03-11T10:03:39.841Z,8.6
2023-03-11T10:06:39.314Z,8.67
2023-03-11T10:08:39.335Z,8.68
2023-03-11T10:11:39.377Z,8.81
2023-03-11T10:14:39.351Z,8.93
2023-03-11T10:17:39.438Z,9.06
2023-03-11T10:19:39.580Z,9.09
2023-03-11T10:22:39.368Z,9.02
2023-03-11T10:25:39.338Z,9.03
2023-03-11T10:27:41.581Z,9.06
2023-03-11T10:30:39.349Z,9.13
2023-03-11T10:33:39.338Z,9.22
2023-03-11T10:35:39.471Z,9.18
2023-03-11T10:37:48.634Z,9.22
2023-03-11T10:40:39.334Z,9.34
2023-03-11T10:43:39.350Z,9.33
2023-03-11T10:45:39.370Z,9.28
2023-03-11T10:48:39.335Z,9.25
2023-03-11T10:50:39.374Z,9.2
2023-03-11T10:53:39.337Z,9.24
2023-03-11T10:55:39.348Z,9.33
2023-03-11T10:57:39.356Z,9.37
2023-03-11T11:00:39.335Z,9.41
2023-03-11T11:03:39.296Z,9.59
2023-03-11T11:05:39.359Z,9.74
2023-03-11T11:08:39.300Z,9.93
2023-03-11T11:10:39.340Z,10.02
2023-03-11T11:13:39.390Z,10.2
2023-03-11T11:16:39.405Z,10.4
2023-03-11T11:19:39.344Z,10.55
2023-03-11T11:22:39.370Z,10.66
2023-03-11T11:25:39.342Z,10.78
2023-03-11T11:27:39.360Z,10.91
2023-03-11T11:30:39.401Z,11.07
2023-03-11T11:33:39.410Z,11.12
2023-03-11T11:36:39.315Z,11.19
2023-03-11T11:38:39.373Z,11.26
2023-03-11T11:41:39.387Z,11.41
2023-03-11T11:44:39.347Z,11.58
2023-03-11T11:46:39.372Z,11.68
2023-03-11T11:49:39.355Z,11.85
2023-03-11T11:52:39.346Z,12.01
2023-03-11T11:54:39.329Z,12.13
2023-03-11T11:57:39.329Z,12.36
2023-03-11T12:00:39.352Z,12.55
2023-03-11T12:03:39.388Z,12.6
2023-03-11T12:05:39.394Z,12.66
2023-03-11T12:08:39.390Z,12.7
2023-03-11T12:11:41.509Z,12.76
2023-03-11T12:14:39.340Z,12.81
2023-03-11T12:16:39.392Z,12.88
2023-03-11T12:19:39.320Z,13
2023-03-11T12:21:39.331Z,13.08
2023-03-11T12:24:39.478Z,13.22
2023-03-11T12:27:39.338Z,13.36
2023-03-11T12:30:39.392Z,13.58
2023-03-11T12:33:39.326Z,13.76
2023-03-11T12:36:39.363Z,13.83
2023-03-11T12:38:39.410Z,13.93
2023-03-11T12:41:39.331Z,14.12
2023-03-11T12:43:39.453Z,14.23
2023-03-11T12:46:39.472Z,14.44
2023-03-11T12:48:39.393Z,14.52
2023-03-11T12:51:39.375Z,14.66
2023-03-11T12:54:39.400Z,14.77
2023-03-11T12:57:40.252Z,14.94
2023-03-11T13:00:39.321Z,15.02
2023-03-11T13:02:39.389Z,15.05
2023-03-11T13:05:39.358Z,15.17
2023-03-11T13:08:39.330Z,15.37
2023-03-11T13:10:39.364Z,15.5
2023-03-11T13:13:39.357Z,15.56
2023-03-11T13:15:39.365Z,15.75
2023-03-11T13:18:39.355Z,15.91
2023-03-11T13:20:39.350Z,15.95
2023-03-11T13:22:39.384Z,15.94
2023-03-11T13:25:39.324Z,15.91
2023-03-11T13:27:39.379Z,15.84
2023-03-11T13:30:39.382Z,15.74
2023-03-11T13:33:39.342Z,15.64
2023-03-11T13:35:39.385Z,15.52
2023-03-11T13:38:39.332Z,15.42
2023-03-11T13:40:39.390Z,15.35
2023-03-11T13:43:39.373Z,15.32
2023-03-11T13:46:39.399Z,15.24
2023-03-11T13:48:39.394Z,15.2
2023-03-11T13:51:39.358Z,15.15
2023-03-11T13:54:39.374Z,15.09
2023-03-11T13:57:46.280Z,15.09
2023-03-11T14:00:39.462Z,15.21
2023-03-11T14:02:39.372Z,15.32
2023-03-11T14:04:39.408Z,15.41
2023-03-11T14:07:39.414Z,15.5
2023-03-11T14:09:39.433Z,15.52
2023-03-11T14:12:39.346Z,15.56
2023-03-11T14:15:39.350Z,15.49
2023-03-11T14:17:39.359Z,15.43
2023-03-11T14:20:39.422Z,15.37
2023-03-11T14:22:39.364Z,15.37
2023-03-11T14:24:39.394Z,15.38
2023-03-11T14:27:39.372Z,15.34
2023-03-11T14:29:39.366Z,15.31
2023-03-11T14:31:39.449Z,15.26
2023-03-11T14:33:39.358Z,15.21
2023-03-11T14:36:39.339Z,15.12
2023-03-11T14:38:39.468Z,15.06
2023-03-11T14:41:39.376Z,14.96
2023-03-11T14:44:39.376Z,14.83
2023-03-11T14:46:39.383Z,14.75
2023-03-11T14:49:39.375Z,14.63
2023-03-11T14:52:39.320Z,14.54
2023-03-11T14:54:39.361Z,14.46
2023-03-11T14:57:33.822Z,14.39
2023-03-11T14:59:39.359Z,14.35
2023-03-11T15:01:39.395Z,14.33
2023-03-11T15:04:39.351Z,14.29
2023-03-11T15:06:39.347Z,14.29
2023-03-11T15:08:39.386Z,14.26
2023-03-11T15:11:39.356Z,14.16
2023-03-11T15:13:39.370Z,14.07
2023-03-11T15:16:39.399Z,14.04
2023-03-11T15:19:39.339Z,14.05
2023-03-11T15:21:39.394Z,14.08
2023-03-11T15:24:39.395Z,14.1
2023-03-11T15:27:39.366Z,14.15
2023-03-11T15:29:39.447Z,14.22
2023-03-11T15:33:39.440Z,14.36
2023-03-11T15:36:39.418Z,14.35
2023-03-11T15:39:39.369Z,14.33
2023-03-11T15:41:39.424Z,14.33
2023-03-11T15:44:39.377Z,14.29
2023-03-11T15:47:39.336Z,14.28
2023-03-11T15:49:39.397Z,14.24
2023-03-11T15:51:39.391Z,14.21
2023-03-11T15:53:39.366Z,14.18
2023-03-11T15:56:39.326Z,14.14
2023-03-11T15:59:39.338Z,14.09
2023-03-11T16:01:39.481Z,14.1
2023-03-11T16:04:39.425Z,14.03
2023-03-11T16:07:40.194Z,13.97
2023-03-11T16:10:39.368Z,13.92
2023-03-11T16:12:39.407Z,13.91
2023-03-11T16:15:39.493Z,13.86
2023-03-11T16:18:39.348Z,13.68
2023-03-11T16:20:39.376Z,13.47
2023-03-11T16:23:50.974Z,13.29
2023-03-11T16:26:42.495Z,13.24
2023-03-11T16:28:39.339Z,13.25
2023-03-11T16:31:39.460Z,13.2
2023-03-11T16:34:39.371Z,13.09
2023-03-11T16:37:39.369Z,13.07
2023-03-11T16:40:39.352Z,12.96
2023-03-11T16:42:39.383Z,12.95
2023-03-11T16:44:39.392Z,12.93
2023-03-11T16:47:39.372Z,12.9
2023-03-11T16:50:39.369Z,12.79
2023-03-11T16:52:39.432Z,12.76
2023-03-11T16:55:39.379Z,12.73
2023-03-11T16:57:39.447Z,12.7
2023-03-11T17:00:39.410Z,12.61
2023-03-11T17:03:42.652Z,12.55
2023-03-11T17:05:39.364Z,12.5
2023-03-11T17:08:39.410Z,12.42
2023-03-11T17:11:39.451Z,12.43
2023-03-11T17:14:39.395Z,12.25
2023-03-11T17:17:39.406Z,12.19
2023-03-11T17:19:39.396Z,12.14
2023-03-11T17:21:39.471Z,12.15
2023-03-11T17:24:39.376Z,12.09
2023-03-11T17:26:39.404Z,12.05
2023-03-11T17:28:39.386Z,12.04
2023-03-11T17:31:39.439Z,12
2023-03-11T17:33:39.459Z,11.92
2023-03-11T17:36:39.365Z,11.84
2023-03-11T17:38:39.395Z,11.83
2023-03-11T17:41:39.366Z,11.82
2023-03-11T17:43:39.399Z,11.78
2023-03-11T17:46:39.493Z,11.72
2023-03-11T17:48:39.399Z,11.65
2023-03-11T17:51:39.480Z,11.63
2023-03-11T17:54:39.370Z,11.54
2023-03-11T17:56:39.481Z,11.45
2023-03-11T17:59:39.427Z,11.4
2023-03-11T18:02:39.380Z,11.37
2023-03-11T18:04:39.397Z,11.31
2023-03-11T18:07:39.404Z,11.21
2023-03-11T18:10:39.406Z,11.25
2023-03-11T18:13:39.413Z,11.22
2023-03-11T18:15:39.403Z,11.18
2023-03-11T18:18:39.412Z,11.16
2023-03-11T18:21:39.389Z,10.91
2023-03-11T18:23:39.389Z,10.75
2023-03-11T18:25:39.374Z,10.65
2023-03-11T18:27:39.441Z,10.58
2023-03-11T18:30:39.421Z,10.58
2023-03-11T18:32:39.496Z,10.65
2023-03-11T18:34:39.437Z,10.58
2023-03-11T18:37:39.378Z,10.52
2023-03-11T18:40:39.382Z,10.34
2023-03-11T18:42:39.415Z,10.37
2023-03-11T18:45:39.411Z,10.33
2023-03-11T18:48:39.382Z,10.34
2023-03-11T18:50:39.419Z,10.27
2023-03-11T18:53:54.824Z,10.1
2023-03-11T18:55:39.408Z,10.01
2023-03-11T18:58:39.414Z,9.92
2023-03-11T19:01:39.449Z,9.93
2023-03-11T19:03:39.404Z,9.95
2023-03-11T19:06:39.448Z,9.8
2023-03-11T19:09:39.414Z,9.72
2023-03-11T19:12:39.580Z,9.68
2023-03-11T19:15:39.377Z,9.64
2023-03-11T19:17:39.427Z,9.71
2023-03-11T19:20:39.442Z,9.67
2023-03-11T19:23:39.380Z,9.58
2023-03-11T19:25:39.483Z,9.47
2023-03-11T19:28:39.424Z,9.31
2023-03-11T19:31:39.421Z,9.34
2023-03-11T19:33:39.407Z,9.28
2023-03-11T19:36:39.398Z,9.14
2023-03-11T19:39:39.387Z,9.1
2023-03-11T19:41:39.447Z,9.04
2023-03-11T19:44:39.426Z,8.91
2023-03-11T19:47:39.414Z,8.88
2023-03-11T19:49:39.406Z,8.89
2023-03-11T19:52:39.465Z,8.89
2023-03-11T19:55:39.368Z,8.96
2023-03-11T19:57:39.357Z,9.03
2023-03-11T20:01:39.411Z,8.87
2023-03-11T20:04:41.836Z,8.82
2023-03-11T20:07:39.395Z,8.78
2023-03-11T20:10:39.406Z,8.62
2023-03-11T20:12:42.861Z,8.54
2023-03-11T20:15:39.485Z,8.53
2023-03-11T20:18:39.389Z,8.51
2023-03-11T20:20:39.399Z,8.43
2023-03-11T20:22:39.473Z,8.41
2023-03-11T20:24:39.428Z,8.32
2023-03-11T20:27:39.414Z,8.33
2023-03-11T20:29:39.448Z,8.43
2023-03-11T20:32:39.445Z,8.56
2023-03-11T20:35:39.394Z,8.55
2023-03-11T20:37:39.745Z,8.5
2023-03-11T20:40:39.385Z,8.62
2023-03-11T20:43:39.438Z,8.59
2023-03-11T20:45:39.358Z,8.47
2023-03-11T20:47:39.403Z,8.49
2023-03-11T20:50:39.395Z,8.43
2023-03-11T20:54:39.433Z,8.47
2023-03-11T20:57:39.465Z,8.43
2023-03-11T20:59:39.379Z,8.34
2023-03-11T21:01:39.550Z,8.35
2023-03-11T21:03:39.498Z,8.35
2023-03-11T21:06:39.369Z,8.32
2023-03-11T21:08:40.221Z,8.33
2023-03-11T21:11:39.408Z,8.13
2023-03-11T21:13:39.445Z,8.16
2023-03-11T21:16:39.549Z,8.2
2023-03-11T21:19:39.466Z,8.33
2023-03-11T21:22:39.445Z,8.35
2023-03-11T21:24:39.353Z,8.24
2023-03-11T21:26:39.431Z,8.2
2023-03-11T21:29:39.420Z,8.28
2023-03-11T21:32:39.555Z,8.24
2023-03-11T21:34:39.392Z,8.17
2023-03-11T21:37:39.436Z,8.27
2023-03-11T21:39:39.350Z,8.29
2023-03-11T21:41:39.365Z,8.2
2023-03-11T21:44:39.509Z,8.18
2023-03-11T21:47:39.440Z,8.16
2023-03-11T21:49:39.441Z,8.13
2023-03-11T21:52:39.368Z,8.1
2023-03-11T21:55:39.434Z,8.13
2023-03-11T21:58:39.498Z,8.2
2023-03-11T22:01:39.418Z,8.14
2023-03-11T22:03:39.444Z,8.16
2023-03-11T22:06:39.510Z,8.06
2023-03-11T22:08:46.290Z,7.99
2023-03-11T22:11:39.532Z,8.01
2023-03-11T22:14:39.499Z,7.87
2023-03-11T22:17:39.630Z,7.92
2023-03-11T22:20:39.516Z,7.82
2023-03-11T22:23:39.361Z,7.8
2023-03-11T22:25:39.388Z,7.73
2023-03-11T22:28:39.389Z,7.91
2023-03-11T22:31:40.363Z,7.84
2023-03-11T22:33:39.431Z,7.83
2023-03-11T22:36:39.399Z,7.99
2023-03-11T22:38:41.978Z,7.92
2023-03-11T22:41:39.376Z,7.87
2023-03-11T22:44:39.404Z,7.77
2023-03-11T22:47:39.358Z,7.69
2023-03-11T22:49:39.387Z,7.62
2023-03-11T22:52:39.397Z,7.65
2023-03-11T22:55:39.330Z,7.69
2023-03-11T22:57:39.403Z,7.83
2023-03-11T22:59:39.537Z,7.81
2023-03-11T23:02:39.378Z,7.76
2023-03-11T23:04:39.411Z,7.72
2023-03-11T23:06:39.407Z,7.68
2023-03-11T23:09:39.394Z,7.61
2023-03-11T23:12:39.324Z,7.7
2023-03-11T23:14:44.808Z,7.74
2023-03-11T23:16:39.482Z,7.77
2023-03-11T23:19:39.384Z,7.65
2023-03-11T23:21:39.388Z,7.63
2023-03-11T23:24:39.401Z,7.49
2023-03-11T23:27:39.330Z,7.49
2023-03-11T23:30:39.414Z,7.43
2023-03-11T23:32:39.445Z,7.45
2023-03-11T23:35:39.419Z,7.61
2023-03-11T23:38:39.365Z,7.5
2023-03-11T23:40:39.419Z,7.57
2023-03-11T23:44:39.429Z,7.55
2023-03-11T23:47:39.391Z,7.42
2023-03-11T23:50:39.337Z,7.51
2023-03-11T23:52:39.453Z,7.56
2023-03-11T23:55:39.356Z,7.6
2023-03-11T23:57:39.382Z,7.59
2023-03-11T23:59:39.474Z,7.67
